Time;durP1;ratioP1;P1;durP2;ratioP2;P2;SDS_P1;SDS_P2;PMS_P1;PMS_P2;Temp;Humidity;BMP_temperature;BMP_pressure;BME280_temperature;BME280_humidity;BME280_pressure;Samples;Min_cycle;Max_cycle;Signal;HPM_P1;HPM_P2
2023/06/28 00:01:21;;;;;;;12.35;4.85;;;13.70;99.90;;;;;;7374699;19;20532;-62
2023/06/28 00:03:48;;;;;;;9.57;4.57;;;13.70;99.90;;;;;;7376335;19;20015;-62
2023/06/28 00:06:15;;;;;;;8.98;4.72;;;13.80;99.90;;;;;;7372443;19;20323;-62
2023/06/28 00:08:41;;;;;;;9.50;4.93;;;13.90;99.90;;;;;;7373571;19;20057;-62
2023/06/28 00:11:08;;;;;;;9.23;4.80;;;13.80;99.90;;;;;;7371979;19;20023;-62
2023/06/28 00:13:34;;;;;;;11.07;4.80;;;13.90;99.90;;;;;;7372931;19;20573;-62
2023/06/28 00:16:01;;;;;;;10.00;4.75;;;13.90;99.90;;;;;;7371824;19;20564;-62
2023/06/28 00:18:29;;;;;;;10.18;5.60;;;13.90;99.90;;;;;;7369480;19;20152;-63
2023/06/28 00:20:56;;;;;;;8.98;5.10;;;13.90;99.90;;;;;;7373952;19;20511;-62
2023/06/28 00:23:22;;;;;;;10.18;5.03;;;13.90;99.90;;;;;;7371859;19;20545;-62
2023/06/28 00:25:51;;;;;;;11.52;5.45;;;13.90;99.90;;;;;;7378901;19;20568;-61
2023/06/28 00:28:17;;;;;;;9.60;4.78;;;13.90;99.90;;;;;;7381575;19;20623;-63
2023/06/28 00:30:44;;;;;;;10.50;4.32;;;13.80;99.90;;;;;;7378318;19;20619;-60
2023/06/28 00:33:10;;;;;;;10.30;4.70;;;13.80;99.90;;;;;;7380241;19;20052;-62
2023/06/28 00:35:38;;;;;;;15.57;5.95;;;13.70;99.90;;;;;;7381686;19;20026;-62
2023/06/28 00:38:07;;;;;;;11.07;5.05;;;13.70;99.90;;;;;;7378528;19;20015;-61
2023/06/28 00:40:33;;;;;;;9.07;5.07;;;13.70;99.90;;;;;;7376809;19;20026;-62
2023/06/28 00:42:59;;;;;;;13.55;5.93;;;13.70;99.90;;;;;;7381834;19;20049;-62
2023/06/28 00:45:26;;;;;;;9.77;5.45;;;13.70;99.90;;;;;;7376227;19;20034;-62
2023/06/28 00:47:53;;;;;;;9.23;5.32;;;13.70;99.90;;;;;;7377786;19;20031;-61
2023/06/28 00:50:20;;;;;;;10.80;4.85;;;13.70;99.90;;;;;;7375240;19;20292;-62
2023/06/28 00:52:46;;;;;;;9.30;5.20;;;13.70;99.90;;;;;;7381600;19;20382;-62
2023/06/28 00:55:13;;;;;;;10.90;4.90;;;13.80;99.90;;;;;;7379685;19;20019;-62
2023/06/28 00:57:39;;;;;;;10.48;5.00;;;13.70;99.90;;;;;;7379488;19;20043;-62
2023/06/28 01:00:11;;;;;;;11.20;5.53;;;13.70;99.90;;;;;;7380416;19;20082;-62
2023/06/28 01:02:41;;;;;;;12.82;5.50;;;13.70;99.90;;;;;;7380575;19;20015;-62
2023/06/28 01:05:09;;;;;;;10.63;5.15;;;13.70;99.90;;;;;;7379376;19;20018;-62
2023/06/28 01:07:40;;;;;;;9.85;5.72;;;13.60;99.90;;;;;;7373063;19;20014;-61
2023/06/28 01:10:07;;;;;;;8.75;5.32;;;13.60;99.90;;;;;;7380214;19;20032;-62
2023/06/28 01:12:35;;;;;;;8.43;4.72;;;13.60;99.90;;;;;;7377441;19;20030;-62
2023/06/28 01:15:02;;;;;;;11.73;6.07;;;13.60;99.90;;;;;;7378544;19;20515;-62
2023/06/28 01:17:28;;;;;;;12.73;6.35;;;13.50;99.90;;;;;;7377637;19;20010;-62
2023/06/28 01:19:55;;;;;;;11.73;5.90;;;13.60;99.90;;;;;;7382831;19;20077;-62
2023/06/28 01:22:23;;;;;;;9.32;5.68;;;13.50;99.90;;;;;;7380997;19;20010;-62
2023/06/28 01:24:49;;;;;;;14.63;6.40;;;13.50;99.90;;;;;;7377042;19;20474;-62
2023/06/28 01:27:16;;;;;;;8.75;5.60;;;13.50;99.90;;;;;;7374595;19;20026;-62
2023/06/28 01:29:42;;;;;;;10.15;5.43;;;13.50;99.90;;;;;;7378457;19;20081;-62
2023/06/28 01:32:10;;;;;;;9.60;5.57;;;13.50;99.90;;;;;;7378477;19;20014;-62
2023/06/28 01:34:36;;;;;;;11.68;5.63;;;13.50;99.90;;;;;;7375745;19;20473;-62
2023/06/28 01:37:04;;;;;;;11.40;5.65;;;13.40;99.90;;;;;;7374014;19;20378;-62
2023/06/28 01:39:33;;;;;;;11.77;5.75;;;13.40;99.90;;;;;;7375817;19;20092;-62
2023/06/28 01:42:00;;;;;;;9.25;5.40;;;13.40;99.90;;;;;;7377069;19;20023;-63
2023/06/28 01:44:26;;;;;;;9.88;5.63;;;13.40;99.90;;;;;;7376765;19;20060;-63
2023/06/28 01:46:54;;;;;;;10.52;5.85;;;13.40;99.90;;;;;;7372084;19;20026;-62
2023/06/28 01:49:21;;;;;;;12.00;5.43;;;13.40;99.90;;;;;;7376529;19;20458;-62
2023/06/28 01:51:47;;;;;;;7.65;4.78;;;13.20;99.90;;;;;;7378534;19;20775;-63
2023/06/28 01:54:16;;;;;;;11.20;5.47;;;13.20;99.90;;;;;;7376586;19;20018;-62
2023/06/28 01:56:42;;;;;;;10.90;5.53;;;13.10;99.90;;;;;;7375222;19;20044;-63
2023/06/28 01:59:09;;;;;;;10.75;6.60;;;13.20;99.90;;;;;;7373611;19;20022;-63
2023/06/28 02:01:35;;;;;;;9.10;5.80;;;13.20;99.90;;;;;;7373977;19;20030;-63
2023/06/28 02:04:05;;;;;;;13.65;6.82;;;13.20;99.90;;;;;;7374709;19;20018;-64
2023/06/28 02:06:31;;;;;;;10.68;6.18;;;13.20;99.90;;;;;;7371429;19;20022;-62
2023/06/28 02:08:57;;;;;;;11.05;5.90;;;13.20;99.90;;;;;;7372651;19;20529;-62
2023/06/28 02:11:23;;;;;;;11.90;6.68;;;13.10;99.90;;;;;;7373380;19;20525;-64
2023/06/28 02:13:50;;;;;;;12.55;6.93;;;13.10;99.90;;;;;;7376237;19;20033;-63
2023/06/28 02:16:18;;;;;;;12.45;6.85;;;13.10;99.90;;;;;;7374750;19;20025;-63
2023/06/28 02:18:45;;;;;;;12.65;7.10;;;13.10;99.90;;;;;;7374265;19;20014;-62
2023/06/28 02:21:11;;;;;;;9.57;7.40;;;13.10;99.90;;;;;;7375996;19;20022;-62
2023/06/28 02:23:37;;;;;;;11.32;6.20;;;13.10;99.90;;;;;;7375296;19;20014;-63
2023/06/28 02:26:03;;;;;;;8.85;7.30;;;13.10;99.90;;;;;;7376459;19;20022;-62
2023/06/28 02:28:30;;;;;;;10.90;6.35;;;13.10;99.90;;;;;;7373766;19;20406;-62
2023/06/28 02:30:56;;;;;;;10.18;6.40;;;13.10;99.90;;;;;;7373715;19;20024;-64
2023/06/28 02:33:23;;;;;;;10.88;7.72;;;13.10;99.90;;;;;;7372647;19;20094;-63
2023/06/28 02:35:50;;;;;;;10.80;6.97;;;13.10;99.90;;;;;;7373418;19;20014;-62
2023/06/28 02:38:16;;;;;;;12.40;7.22;;;13.10;99.90;;;;;;7373881;19;20015;-62
2023/06/28 02:40:45;;;;;;;11.15;7.20;;;13.20;99.90;;;;;;7373018;19;20022;-63
2023/06/28 02:43:12;;;;;;;10.85;7.38;;;13.20;99.90;;;;;;7373389;19;20011;-63
2023/06/28 02:45:38;;;;;;;12.80;7.50;;;13.20;99.90;;;;;;7370893;19;20341;-62
2023/06/28 02:48:05;;;;;;;13.57;8.00;;;13.20;99.90;;;;;;7368886;19;20022;-62
2023/06/28 02:50:31;;;;;;;17.90;8.52;;;13.20;99.90;;;;;;7370633;19;20644;-62
2023/06/28 02:53:03;;;;;;;;;;;13.20;99.90;;;;;;7372482;19;20052;-63
2023/06/28 02:55:29;;;;;;;12.00;8.90;;;13.30;99.90;;;;;;7371110;19;19963;-62
2023/06/28 02:57:59;;;;;;;10.48;7.90;;;13.30;99.90;;;;;;7370548;19;20019;-62
2023/06/28 03:00:25;;;;;;;12.75;7.88;;;13.40;99.90;;;;;;7371873;19;20040;-63
2023/06/28 03:02:52;;;;;;;12.50;7.53;;;13.40;99.90;;;;;;7371993;19;20052;-62
2023/06/28 03:05:20;;;;;;;11.80;7.88;;;13.40;99.90;;;;;;7373631;19;20018;-62
2023/06/28 03:07:46;;;;;;;12.00;8.15;;;13.50;99.90;;;;;;7372406;19;20105;-62
2023/06/28 03:10:14;;;;;;;12.65;8.02;;;13.50;99.90;;;;;;7370933;19;20555;-63
2023/06/28 03:12:41;;;;;;;14.77;8.35;;;13.50;99.90;;;;;;7370409;19;20481;-62
2023/06/28 03:15:10;;;;;;;13.65;8.18;;;13.60;99.90;;;;;;7372483;19;20515;-62
2023/06/28 03:17:36;;;;;;;10.85;7.93;;;13.70;99.90;;;;;;7371007;19;20031;-63
2023/06/28 03:20:02;;;;;;;14.25;8.65;;;13.60;99.90;;;;;;7369961;19;20367;-63
2023/06/28 03:22:31;;;;;;;11.88;8.50;;;13.60;99.90;;;;;;7370069;19;20125;-63
2023/06/28 03:24:57;;;;;;;13.70;7.88;;;13.70;99.90;;;;;;7373257;19;21207;-62
2023/06/28 03:27:24;;;;;;;10.00;7.70;;;13.70;99.90;;;;;;7372112;19;20721;-63
2023/06/28 03:29:50;;;;;;;12.05;8.52;;;13.70;99.90;;;;;;7372442;19;20501;-63
2023/06/28 03:32:17;;;;;;;11.65;8.30;;;13.70;99.90;;;;;;7370667;19;20030;-62
2023/06/28 03:34:43;;;;;;;11.50;7.72;;;13.80;99.90;;;;;;7373037;19;20030;-62
2023/06/28 03:37:10;;;;;;;9.98;7.50;;;13.80;99.90;;;;;;7372735;19;20018;-63
2023/06/28 03:39:37;;;;;;;11.88;8.35;;;13.80;99.90;;;;;;7371752;19;20022;-63
2023/06/28 03:42:04;;;;;;;14.07;8.18;;;13.80;99.90;;;;;;7374075;19;20023;-62
2023/06/28 03:44:30;;;;;;;12.88;7.50;;;13.80;99.90;;;;;;7371944;19;20037;-62
2023/06/28 03:46:57;;;;;;;15.00;8.00;;;13.80;99.90;;;;;;7367877;19;20027;-62
2023/06/28 03:49:23;;;;;;;12.32;8.20;;;13.80;99.90;;;;;;7371841;19;20030;-63
2023/06/28 03:51:49;;;;;;;16.60;8.50;;;13.80;99.90;;;;;;7369067;19;20064;-63
2023/06/28 03:54:15;;;;;;;13.70;8.52;;;13.80;99.90;;;;;;7370780;19;20038;-62
2023/06/28 03:56:42;;;;;;;11.82;8.27;;;13.80;99.90;;;;;;7372734;19;20026;-62
2023/06/28 03:59:08;;;;;;;12.70;8.35;;;13.90;99.90;;;;;;7378239;19;20019;-62
2023/06/28 04:01:35;;;;;;;16.40;8.18;;;13.90;99.90;;;;;;7375908;19;20485;-62
2023/06/28 04:04:04;;;;;;;13.45;8.07;;;13.90;99.90;;;;;;7380773;19;20574;-63
2023/06/28 04:06:30;;;;;;;12.43;8.90;;;13.90;99.90;;;;;;7376692;19;20365;-63
2023/06/28 04:08:57;;;;;;;13.82;8.98;;;14.00;99.90;;;;;;7378409;19;20022;-63
2023/06/28 04:11:23;;;;;;;10.25;9.15;;;14.00;99.90;;;;;;7378312;19;20014;-63
2023/06/28 04:13:49;;;;;;;13.70;8.98;;;14.00;99.90;;;;;;7378487;19;20015;-64
2023/06/28 04:16:15;;;;;;;11.73;8.55;;;14.00;99.90;;;;;;7378022;19;20022;-63
2023/06/28 04:18:41;;;;;;;13.18;9.75;;;14.00;99.90;;;;;;7377922;19;20432;-64
2023/06/28 04:21:08;;;;;;;13.70;9.23;;;14.10;99.90;;;;;;7377769;19;20018;-64
2023/06/28 04:23:34;;;;;;;13.40;9.90;;;14.10;99.90;;;;;;7379508;19;20085;-63
2023/06/28 04:26:00;;;;;;;14.00;9.57;;;14.10;99.90;;;;;;7373769;19;20589;-64
2023/06/28 04:28:26;;;;;;;13.48;9.15;;;14.20;99.90;;;;;;7375207;19;20033;-63
2023/06/28 04:30:52;;;;;;;15.15;9.93;;;14.20;99.90;;;;;;7375947;19;20014;-63
2023/06/28 04:33:22;;;;;;;14.55;9.60;;;14.20;99.90;;;;;;7378521;19;20027;-63
2023/06/28 04:35:51;;;;;;;14.75;10.02;;;14.20;99.90;;;;;;7378736;19;20029;-63
2023/06/28 04:38:19;;;;;;;14.98;9.68;;;14.30;99.90;;;;;;7376475;19;20090;-63
2023/06/28 04:40:45;;;;;;;17.10;9.57;;;14.30;99.90;;;;;;7378789;19;20014;-64
2023/06/28 04:43:13;;;;;;;13.20;8.85;;;14.30;99.90;;;;;;7377861;19;20363;-64
2023/06/28 04:45:41;;;;;;;13.18;10.52;;;14.30;99.90;;;;;;7375622;19;20090;-64
2023/06/28 04:48:08;;;;;;;13.63;10.48;;;14.30;99.90;;;;;;7375929;19;20053;-64
2023/06/28 04:50:37;;;;;;;16.13;10.25;;;14.30;99.90;;;;;;7377928;19;20019;-64
2023/06/28 04:53:04;;;;;;;14.95;10.45;;;14.30;99.90;;;;;;7378559;19;20039;-64
2023/06/28 04:55:35;;;;;;;15.52;10.23;;;14.30;99.90;;;;;;7376702;19;20509;-64
2023/06/28 04:58:03;;;;;;;11.63;9.10;;;14.30;99.90;;;;;;7379646;19;20935;-64
2023/06/28 05:00:30;;;;;;;11.23;7.88;;;14.40;99.90;;;;;;7378366;19;20019;-63
2023/06/28 05:03:00;;;;;;;11.60;8.40;;;14.40;99.90;;;;;;7378797;19;20081;-63
2023/06/28 05:05:27;;;;;;;8.82;7.05;;;14.50;99.90;;;;;;7377600;19;20033;-63
2023/06/28 05:07:53;;;;;;;11.30;6.95;;;14.50;99.90;;;;;;7375964;19;20484;-63
2023/06/28 05:10:21;;;;;;;9.38;6.60;;;14.50;99.90;;;;;;7375902;19;20032;-63
2023/06/28 05:12:50;;;;;;;9.27;6.57;;;14.50;99.90;;;;;;7375814;19;20018;-63
2023/06/28 05:15:16;;;;;;;12.30;6.95;;;14.60;99.90;;;;;;7375598;19;20433;-63
2023/06/28 05:17:43;;;;;;;10.32;7.32;;;14.60;99.90;;;;;;7374888;19;20041;-64
2023/06/28 05:20:10;;;;;;;10.50;6.53;;;14.60;99.90;;;;;;7375816;19;20442;-64
2023/06/28 05:22:40;;;;;;;12.68;7.70;;;14.70;99.90;;;;;;7374746;19;20086;-64
2023/06/28 05:25:06;;;;;;;12.70;7.22;;;14.70;99.90;;;;;;7378818;19;20370;-64
2023/06/28 05:27:32;;;;;;;11.15;7.15;;;14.80;99.90;;;;;;7377578;19;20018;-63
2023/06/28 05:29:59;;;;;;;9.48;7.63;;;14.80;99.90;;;;;;7376969;19;20020;-64
2023/06/28 05:32:25;;;;;;;10.20;7.47;;;14.80;99.90;;;;;;7375805;19;20026;-63
2023/06/28 05:34:51;;;;;;;10.00;7.18;;;14.90;99.90;;;;;;7378665;19;20015;-64
2023/06/28 05:37:17;;;;;;;10.95;6.57;;;14.80;99.90;;;;;;7373893;19;20091;-64
2023/06/28 05:39:47;;;;;;;11.00;6.78;;;14.90;99.90;;;;;;7373036;19;20026;-65
2023/06/28 05:42:13;;;;;;;13.48;7.38;;;14.90;99.90;;;;;;7376680;19;20789;-63
2023/06/28 05:44:40;;;;;;;7.93;6.55;;;14.90;99.90;;;;;;7373202;19;20028;-63
2023/06/28 05:47:06;;;;;;;9.13;6.38;;;15.00;99.90;;;;;;7376051;19;20019;-64
2023/06/28 05:49:37;;;;;;;9.85;6.55;;;15.00;99.90;;;;;;7375837;19;20038;-64
2023/06/28 05:52:05;;;;;;;11.20;6.80;;;15.10;99.90;;;;;;7375844;19;20078;-64
2023/06/28 05:54:31;;;;;;;9.88;6.22;;;15.10;99.90;;;;;;7377074;19;20449;-64
2023/06/28 05:56:57;;;;;;;10.38;6.50;;;15.20;99.90;;;;;;7376151;19;20652;-64
2023/06/28 05:59:24;;;;;;;8.40;6.07;;;15.20;99.90;;;;;;7375438;19;20018;-64
2023/06/28 06:01:50;;;;;;;10.10;6.22;;;15.30;99.90;;;;;;7375940;19;20010;-64
2023/06/28 06:04:16;;;;;;;9.65;6.72;;;15.30;99.90;;;;;;7378404;19;20021;-62
2023/06/28 06:06:42;;;;;;;11.00;6.82;;;15.40;99.90;;;;;;7378244;19;20018;-63
2023/06/28 06:09:08;;;;;;;11.63;6.53;;;15.40;99.90;;;;;;7376479;19;20447;-64
2023/06/28 06:11:36;;;;;;;10.70;6.30;;;15.50;99.90;;;;;;7375542;19;20378;-64
2023/06/28 06:14:02;;;;;;;10.43;6.85;;;15.50;99.90;;;;;;7376533;19;20486;-63
2023/06/28 06:16:28;;;;;;;9.32;6.20;;;15.60;99.90;;;;;;7374094;19;20473;-64
2023/06/28 06:18:54;;;;;;;9.85;6.70;;;15.70;99.90;;;;;;7375525;19;20026;-64
2023/06/28 06:21:21;;;;;;;11.90;7.05;;;15.70;99.90;;;;;;7370387;19;20442;-63
2023/06/28 06:23:47;;;;;;;10.80;6.50;;;15.70;99.90;;;;;;7377781;19;20022;-64
2023/06/28 06:26:13;;;;;;;13.15;7.25;;;15.70;99.90;;;;;;7374719;19;20015;-65
2023/06/28 06:28:39;;;;;;;13.98;7.32;;;15.80;99.90;;;;;;7378226;19;20014;-64
2023/06/28 06:31:05;;;;;;;9.82;7.35;;;15.80;99.90;;;;;;7374268;19;20387;-64
2023/06/28 06:33:32;;;;;;;9.27;7.85;;;15.90;99.90;;;;;;7375622;19;20014;-63
2023/06/28 06:35:58;;;;;;;12.45;8.00;;;15.90;99.90;;;;;;7374015;19;20022;-64
2023/06/28 06:38:25;;;;;;;11.68;7.28;;;15.90;99.90;;;;;;7377125;19;20552;-63
2023/06/28 06:40:51;;;;;;;13.20;8.32;;;15.80;99.90;;;;;;7376419;19;20039;-60
2023/06/28 06:43:17;;;;;;;10.80;8.13;;;15.90;99.90;;;;;;7377961;19;20022;-64
2023/06/28 06:45:46;;;;;;;17.40;8.60;;;16.00;99.90;;;;;;7372759;19;20018;-64
2023/06/28 06:48:12;;;;;;;11.30;7.63;;;16.00;99.90;;;;;;7371527;19;20550;-64
2023/06/28 06:50:38;;;;;;;11.48;7.82;;;16.00;99.90;;;;;;7375291;19;20549;-65
2023/06/28 06:53:05;;;;;;;12.27;7.13;;;16.00;99.90;;;;;;7377512;19;20030;-66
2023/06/28 06:55:33;;;;;;;11.57;7.72;;;16.00;99.90;;;;;;7373382;19;20019;-65
2023/06/28 06:57:59;;;;;;;12.85;7.63;;;16.00;99.90;;;;;;7373607;19;20021;-64
2023/06/28 07:00:25;;;;;;;13.07;7.93;;;16.00;99.90;;;;;;7370749;19;20019;-63
2023/06/28 07:02:51;;;;;;;14.27;8.57;;;16.00;99.90;;;;;;7373094;19;20030;-63
2023/06/28 07:05:18;;;;;;;12.60;8.05;;;16.00;99.90;;;;;;7375414;19;20022;-64
2023/06/28 07:07:44;;;;;;;17.35;8.38;;;16.10;99.90;;;;;;7373257;19;20481;-64
2023/06/28 07:10:11;;;;;;;12.90;8.00;;;16.20;99.90;;;;;;7373846;19;20045;-62
2023/06/28 07:12:37;;;;;;;14.48;8.23;;;16.20;99.90;;;;;;7367170;19;20015;-62
2023/06/28 07:15:04;;;;;;;11.80;8.00;;;16.20;99.90;;;;;;7375743;19;20022;-68
2023/06/28 07:17:31;;;;;;;14.55;9.00;;;16.20;99.90;;;;;;7377682;19;20429;-63
2023/06/28 07:19:58;;;;;;;15.23;9.15;;;16.10;99.90;;;;;;7375003;19;20045;-62
2023/06/28 07:22:24;;;;;;;11.57;7.88;;;16.10;99.90;;;;;;7373561;19;20029;-63
2023/06/28 07:24:50;;;;;;;14.35;8.68;;;16.20;99.90;;;;;;7373866;19;20025;-64
2023/06/28 07:27:16;;;;;;;13.48;8.25;;;16.20;99.90;;;;;;7377661;19;20022;-64
2023/06/28 07:29:43;;;;;;;18.58;9.10;;;16.30;99.90;;;;;;7376262;19;20015;-65
2023/06/28 07:32:09;;;;;;;12.20;8.68;;;16.30;99.90;;;;;;7371844;19;20591;-66
2023/06/28 07:34:37;;;;;;;13.88;8.32;;;16.30;99.90;;;;;;7371298;19;20026;-64
2023/06/28 07:37:06;;;;;;;13.93;8.70;;;16.40;99.90;;;;;;7375957;19;20037;-65
2023/06/28 07:39:33;;;;;;;14.70;9.30;;;16.40;99.90;;;;;;7377652;19;20026;-63
2023/06/28 07:41:59;;;;;;;13.70;8.63;;;16.50;99.90;;;;;;7376597;19;20030;-64
2023/06/28 07:44:25;;;;;;;13.70;7.90;;;16.40;99.90;;;;;;7373102;19;20581;-64
2023/06/28 07:46:52;;;;;;;13.32;8.70;;;16.40;99.90;;;;;;7375273;19;20362;-65
2023/06/28 07:49:22;;;;;;;14.35;8.95;;;16.50;99.90;;;;;;7373953;19;20075;-65
2023/06/28 07:51:48;;;;;;;18.50;8.85;;;16.50;99.90;;;;;;7376209;19;20114;-65
2023/06/28 07:54:15;;;;;;;16.23;9.52;;;16.50;99.90;;;;;;7372855;19;20031;-64
2023/06/28 07:56:41;;;;;;;13.77;9.45;;;16.60;99.90;;;;;;7372461;19;20014;-64
2023/06/28 07:59:07;;;;;;;16.95;9.90;;;16.60;99.90;;;;;;7372836;19;20022;-65
2023/06/28 08:01:35;;;;;;;12.80;8.85;;;16.60;99.90;;;;;;7370589;19;20441;-65
2023/06/28 08:04:01;;;;;;;15.27;8.93;;;16.40;99.90;;;;;;7369877;19;20010;-63
2023/06/28 08:06:28;;;;;;;14.82;9.18;;;16.30;99.90;;;;;;7370111;19;20452;-64
2023/06/28 08:08:55;;;;;;;16.75;9.38;;;16.30;99.90;;;;;;7370776;19;20338;-65
2023/06/28 08:11:21;;;;;;;15.63;9.60;;;16.40;99.90;;;;;;7371699;19;20022;-66
2023/06/28 08:13:47;;;;;;;14.18;9.00;;;16.30;99.90;;;;;;7369842;19;20021;-66
2023/06/28 08:16:19;;;;;;;16.08;10.32;;;16.30;99.90;;;;;;7372039;19;20023;-66
2023/06/28 08:18:45;;;;;;;15.13;10.25;;;16.30;99.90;;;;;;7359996;19;20029;-66
2023/06/28 08:21:11;;;;;;;14.38;9.70;;;16.30;99.90;;;;;;7357902;19;20539;-65
2023/06/28 08:23:37;;;;;;;14.60;10.30;;;16.40;99.90;;;;;;7367446;19;20021;-66
2023/06/28 08:26:07;;;;;;;13.25;10.60;;;16.40;99.90;;;;;;7367528;19;20362;-65
2023/06/28 08:28:33;;;;;;;15.35;11.00;;;16.40;99.90;;;;;;7372597;19;20474;-64
2023/06/28 08:30:59;;;;;;;13.98;10.50;;;16.60;99.90;;;;;;7370684;19;20029;-64
2023/06/28 08:33:26;;;;;;;18.35;10.48;;;16.60;99.90;;;;;;7364860;19;20033;-64
2023/06/28 08:35:52;;;;;;;16.00;10.98;;;16.60;99.90;;;;;;7364400;19;21182;-65
2023/06/28 08:38:21;;;;;;;16.00;11.57;;;16.60;99.90;;;;;;7366465;19;20022;-65
2023/06/28 08:40:48;;;;;;;15.68;11.00;;;16.70;99.90;;;;;;7365800;19;20085;-65
2023/06/28 08:43:17;;;;;;;13.65;10.63;;;16.70;99.90;;;;;;7371092;19;20469;-64
2023/06/28 08:45:44;;;;;;;13.68;10.88;;;16.70;99.90;;;;;;7377721;19;20406;-65
2023/06/28 08:48:15;;;;;;;14.77;11.00;;;16.80;99.90;;;;;;7374047;19;20021;-66
2023/06/28 08:50:43;;;;;;;15.98;11.43;;;16.90;99.90;;;;;;7380212;19;20019;-67
2023/06/28 08:53:16;;;;;;;15.18;11.88;;;16.90;99.90;;;;;;7377605;19;20019;-66
2023/06/28 08:55:43;;;;;;;15.23;11.25;;;17.10;99.90;;;;;;7378038;19;20029;-66
2023/06/28 08:58:11;;;;;;;13.57;10.95;;;17.10;99.90;;;;;;7377014;19;20461;-66
2023/06/28 09:00:41;;;;;;;15.32;11.32;;;17.10;99.90;;;;;;7378448;19;20074;-66
2023/06/28 09:03:09;;;;;;;17.77;12.18;;;17.20;99.90;;;;;;7372231;19;20489;-66
2023/06/28 09:05:35;;;;;;;13.85;11.98;;;17.40;99.90;;;;;;7376726;19;21702;-66
2023/06/28 09:08:02;;;;;;;13.77;12.23;;;17.50;99.90;;;;;;7373836;19;20018;-66
2023/06/28 09:10:29;;;;;;;16.20;12.57;;;17.60;99.90;;;;;;7375899;19;20011;-65
2023/06/28 09:12:55;;;;;;;16.83;13.35;;;17.50;99.90;;;;;;7379936;19;20090;-65
2023/06/28 09:15:22;;;;;;;15.93;12.90;;;17.50;99.90;;;;;;7373447;19;20018;-66
2023/06/28 09:17:53;;;;;;;18.17;14.13;;;17.50;99.90;;;;;;7379671;19;20022;-65
2023/06/28 09:20:21;;;;;;;16.85;13.23;;;17.50;99.90;;;;;;7373904;19;21433;-65
2023/06/28 09:22:56;;;;;;;16.10;12.80;;;17.30;99.90;;;;;;7373875;19;20090;-66
2023/06/28 09:25:23;;;;;;;17.83;13.55;;;17.30;99.90;;;;;;7378363;19;20014;-65
2023/06/28 09:27:49;;;;;;;18.83;14.20;;;17.20;99.90;;;;;;7373856;19;20025;-64
2023/06/28 09:30:38;;;;;;;23.33;15.25;;;17.10;99.90;;;;;;7371432;19;20377;-65
2023/06/28 09:33:04;;;;;;;20.30;15.80;;;17.10;99.90;;;;;;7372007;19;20018;-65
2023/06/28 09:35:30;;;;;;;24.10;16.90;;;17.20;99.90;;;;;;7372913;19;20021;-65
2023/06/28 09:38:04;;;;;;;21.27;15.40;;;17.20;99.90;;;;;;7378262;19;20011;-65
2023/06/28 09:40:35;;;;;;;23.35;15.77;;;17.20;99.90;;;;;;7376866;19;20022;-64
2023/06/28 09:43:02;;;;;;;19.80;15.50;;;17.30;99.90;;;;;;7371861;19;20715;-65
2023/06/28 09:45:32;;;;;;;21.67;16.08;;;17.30;99.90;;;;;;7376001;19;20497;-64
2023/06/28 09:48:03;;;;;;;18.27;14.60;;;17.40;99.90;;;;;;7373001;19;20019;-68
2023/06/28 09:50:43;;;;;;;21.75;15.50;;;17.60;99.90;;;;;;7378963;19;20102;-64
2023/06/28 09:53:10;;;;;;;22.92;15.35;;;17.50;99.90;;;;;;7371154;19;20019;-64
2023/06/28 09:55:38;;;;;;;23.52;16.95;;;17.40;99.90;;;;;;7381494;19;20042;-73
2023/06/28 09:58:17;;;;;;;22.42;15.75;;;17.40;99.90;;;;;;7377813;19;20018;-73
2023/06/28 10:00:46;;;;;;;20.70;15.60;;;17.40;99.90;;;;;;7373599;19;20014;-64
2023/06/28 10:03:15;;;;;;;21.90;16.50;;;17.40;99.90;;;;;;7371734;19;20026;-64
2023/06/28 10:05:43;;;;;;;21.27;15.73;;;17.30;99.90;;;;;;7374667;19;20046;-64
2023/06/28 10:08:11;;;;;;;22.00;16.27;;;17.40;99.90;;;;;;7372526;19;20014;-64
2023/06/28 10:10:40;;;;;;;22.65;15.63;;;17.30;99.90;;;;;;7375472;19;20010;-64
2023/06/28 10:13:09;;;;;;;20.90;15.38;;;17.40;99.90;;;;;;7367586;19;20052;-64
2023/06/28 10:15:54;;;;;;;22.00;15.63;;;17.40;99.90;;;;;;7371858;19;20074;-63
2023/06/28 10:18:21;;;;;;;18.70;15.38;;;17.50;99.90;;;;;;7374398;19;20041;-63
2023/06/28 10:20:49;;;;;;;18.15;15.30;;;17.60;99.90;;;;;;7372029;19;20037;-64
2023/06/28 10:23:17;;;;;;;20.77;16.27;;;17.60;99.90;;;;;;7375096;19;20463;-63
2023/06/28 10:25:45;;;;;;;19.38;15.63;;;17.70;99.90;;;;;;7374295;19;20410;-63
2023/06/28 10:28:12;;;;;;;19.02;14.75;;;17.80;99.90;;;;;;7374412;19;20033;-63
2023/06/28 10:30:40;;;;;;;20.27;15.43;;;17.80;99.90;;;;;;7372868;19;20014;-65
2023/06/28 10:33:07;;;;;;;19.75;14.82;;;17.80;99.90;;;;;;7376339;19;20018;-63
2023/06/28 10:35:34;;;;;;;19.58;16.10;;;17.70;99.90;;;;;;7372169;19;20020;-63
2023/06/28 10:38:00;;;;;;;18.40;16.17;;;17.70;99.90;;;;;;7369494;19;20424;-63
2023/06/28 10:40:26;;;;;;;20.88;15.57;;;17.70;99.90;;;;;;7372709;19;20018;-64
2023/06/28 10:42:53;;;;;;;20.15;15.20;;;17.80;99.90;;;;;;7372934;19;20018;-64
2023/06/28 10:45:36;;;;;;;18.77;15.38;;;17.90;99.90;;;;;;7371614;19;20090;-64
2023/06/28 10:48:04;;;;;;;17.65;15.82;;;17.90;99.90;;;;;;7369008;19;20023;-66
2023/06/28 10:50:41;;;;;;;16.55;14.55;;;17.90;99.90;;;;;;7368885;19;20438;-65
2023/06/28 10:53:19;;;;;;;31.40;28.20;;;17.90;99.90;;;;;;7370401;19;20537;-67
2023/06/28 10:56:11;;;;;;;18.08;15.63;;;18.00;99.90;;;;;;7374641;19;20021;-68
2023/06/28 10:58:38;;;;;;;18.38;14.88;;;18.10;99.90;;;;;;7373604;19;20029;-69
2023/06/28 11:01:09;;;;;;;18.98;15.07;;;18.10;99.90;;;;;;7378527;19;20015;-67
2023/06/28 11:03:43;;;;;;;17.67;14.33;;;18.20;99.90;;;;;;7378657;19;20421;-68
2023/06/28 11:06:14;;;;;;;18.85;15.38;;;18.10;99.90;;;;;;7377711;19;20275;-67
2023/06/28 11:08:44;;;;;;;16.98;14.73;;;18.20;99.90;;;;;;7378113;19;20026;-68
2023/06/28 11:11:31;;;;;;;16.45;14.60;;;18.30;99.90;;;;;;7378159;19;20393;-67
2023/06/28 11:13:57;;;;;;;16.85;14.82;;;18.30;99.90;;;;;;7372284;19;20385;-63
2023/06/28 11:16:24;;;;;;;16.73;15.02;;;18.30;99.90;;;;;;7373118;19;20018;-63
2023/06/28 11:18:52;;;;;;;16.10;14.40;;;18.30;99.90;;;;;;7374494;19;20836;-65
2023/06/28 11:21:24;;;;;;;37.58;34.13;;;18.30;99.90;;;;;;7376841;19;20094;-65
2023/06/28 11:23:56;;;;;;;16.88;15.27;;;18.30;99.90;;;;;;7373788;19;20028;-63
2023/06/28 11:26:37;;;;;;;16.10;14.55;;;18.40;99.90;;;;;;7375184;19;20078;-63
2023/06/28 11:29:16;;;;;;;;;;;18.40;99.90;;;;;;7374962;19;20344;-62
2023/06/28 11:31:50;;;;;;;16.30;14.05;;;18.50;99.90;;;;;;7370447;19;20033;-64
2023/06/28 11:34:18;;;;;;;17.05;14.15;;;18.60;99.90;;;;;;7375076;19;20126;-63
2023/06/28 11:36:47;;;;;;;16.23;14.60;;;18.60;99.90;;;;;;7375231;19;20381;-63
2023/06/28 11:39:19;;;;;;;16.83;15.23;;;18.80;99.90;;;;;;7374043;19;20568;-64
2023/06/28 11:41:45;;;;;;;15.82;14.25;;;18.80;99.90;;;;;;7368912;19;20019;-63
2023/06/28 11:44:13;;;;;;;16.88;14.80;;;18.70;99.90;;;;;;7372755;19;20015;-60
2023/06/28 11:46:41;;;;;;;15.75;14.15;;;18.70;99.90;;;;;;7374265;19;20023;-64
2023/06/28 11:49:08;;;;;;;15.73;14.35;;;18.90;99.90;;;;;;7372611;19;20019;-65
2023/06/28 11:51:35;;;;;;;16.35;14.60;;;18.90;99.90;;;;;;7372087;19;20037;-63
2023/06/28 11:54:04;;;;;;;16.23;14.70;;;18.90;99.90;;;;;;7373756;19;20018;-64
2023/06/28 11:56:39;;;;;;;16.30;14.73;;;18.90;99.90;;;;;;7373530;19;20018;-63
2023/06/28 11:59:19;;;;;;;17.58;15.18;;;18.90;99.90;;;;;;7371375;19;20018;-64
2023/06/28 12:01:46;;;;;;;16.95;15.27;;;19.00;99.90;;;;;;7370298;19;20026;-64
2023/06/28 12:04:17;;;;;;;17.50;15.82;;;18.90;99.90;;;;;;7371302;19;20019;-65
2023/06/28 12:06:44;;;;;;;17.70;15.95;;;19.00;99.90;;;;;;7371431;19;20018;-65
2023/06/28 12:09:26;;;;;;;17.42;15.63;;;19.10;99.90;;;;;;7367920;19;20014;-63
2023/06/28 12:11:54;;;;;;;18.02;16.40;;;19.10;99.90;;;;;;7370244;19;20018;-64
2023/06/28 12:14:21;;;;;;;17.88;16.17;;;19.10;99.90;;;;;;7365833;19;20018;-65
2023/06/28 12:16:50;;;;;;;17.25;15.70;;;19.10;99.90;;;;;;7368836;19;20019;-65
2023/06/28 12:19:17;;;;;;;18.63;16.77;;;19.00;99.90;;;;;;7377814;19;20023;-64
2023/06/28 12:21:45;;;;;;;18.08;16.08;;;19.10;99.90;;;;;;7377116;19;20022;-65
2023/06/28 12:24:15;;;;;;;20.25;18.35;;;19.20;99.90;;;;;;7377872;19;20476;-65
2023/06/28 12:26:49;;;;;;;19.05;17.13;;;19.20;99.90;;;;;;7377915;19;20121;-66
2023/06/28 12:29:22;;;;;;;19.60;17.73;;;19.30;99.90;;;;;;7378634;19;20647;-64
2023/06/28 12:31:49;;;;;;;19.48;17.58;;;19.40;99.90;;;;;;7376446;19;20489;-64
2023/06/28 12:34:26;;;;;;;20.33;18.00;;;19.40;99.90;;;;;;7379650;19;20029;-63
2023/06/28 12:36:55;;;;;;;19.30;17.30;;;19.40;99.90;;;;;;7375667;19;20369;-66
2023/06/28 12:39:25;;;;;;;20.83;18.77;;;19.50;99.90;;;;;;7375784;19;20670;-64